sensor_id;sensor_type;location;lat;lon;timestamp;temperature;humidity
19622;DHT22;9958;33.196;-97.114;2023-10-08T00:01:25;19.10;48.40
19622;DHT22;9958;33.196;-97.114;2023-10-08T00:03:53;19.00;48.30
19622;DHT22;9958;33.196;-97.114;2023-10-08T00:06:24;18.90;48.80
19622;DHT22;9958;33.196;-97.114;2023-10-08T00:08:54;18.90;48.90
19622;DHT22;9958;33.196;-97.114;2023-10-08T00:11:28;18.70;49.70
19622;DHT22;9958;33.196;-97.114;2023-10-08T00:13:57;18.60;50.30
19622;DHT22;9958;33.196;-97.114;2023-10-08T00:16:27;18.50;51.10
19622;DHT22;9958;33.196;-97.114;2023-10-08T00:18:56;18.40;52.10
19622;DHT22;9958;33.196;-97.114;2023-10-08T00:21:34;18.40;52.60
19622;DHT22;9958;33.196;-97.114;2023-10-08T00:24:05;18.20;53.70
19622;DHT22;9958;33.196;-97.114;2023-10-08T00:26:37;18.10;54.40
19622;DHT22;9958;33.196;-97.114;2023-10-08T00:29:07;18.00;55.20
19622;DHT22;9958;33.196;-97.114;2023-10-08T00:31:42;17.90;56.00
19622;DHT22;9958;33.196;-97.114;2023-10-08T00:34:11;17.80;56.50
19622;DHT22;9958;33.196;-97.114;2023-10-08T00:36:41;17.70;57.10
19622;DHT22;9958;33.196;-97.114;2023-10-08T00:39:10;17.60;57.50
19622;DHT22;9958;33.196;-97.114;2023-10-08T00:41:44;17.50;57.90
19622;DHT22;9958;33.196;-97.114;2023-10-08T00:44:13;17.40;58.70
19622;DHT22;9958;33.196;-97.114;2023-10-08T00:46:49;17.30;58.70
19622;DHT22;9958;33.196;-97.114;2023-10-08T00:49:20;17.20;59.20
19622;DHT22;9958;33.196;-97.114;2023-10-08T00:52:02;17.10;59.70
19622;DHT22;9958;33.196;-97.114;2023-10-08T00:54:53;17.00;60.20
19622;DHT22;9958;33.196;-97.114;2023-10-08T00:57:36;16.80;60.90
19622;DHT22;9958;33.196;-97.114;2023-10-08T01:00:10;16.80;61.40
19622;DHT22;9958;33.196;-97.114;2023-10-08T01:02:48;16.70;61.70
19622;DHT22;9958;33.196;-97.114;2023-10-08T01:05:26;16.60;61.60
19622;DHT22;9958;33.196;-97.114;2023-10-08T01:08:03;16.50;61.80
19622;DHT22;9958;33.196;-97.114;2023-10-08T01:10:33;16.50;62.30
19622;DHT22;9958;33.196;-97.114;2023-10-08T01:13:06;16.40;62.70
19622;DHT22;9958;33.196;-97.114;2023-10-08T01:15:41;16.30;63.30
19622;DHT22;9958;33.196;-97.114;2023-10-08T01:18:11;16.20;63.30
19622;DHT22;9958;33.196;-97.114;2023-10-08T01:20:44;16.20;64.00
19622;DHT22;9958;33.196;-97.114;2023-10-08T01:23:20;16.10;64.00
19622;DHT22;9958;33.196;-97.114;2023-10-08T01:25:53;16.00;64.20
19622;DHT22;9958;33.196;-97.114;2023-10-08T01:28:36;16.00;64.50
19622;DHT22;9958;33.196;-97.114;2023-10-08T01:31:04;15.90;65.10
19622;DHT22;9958;33.196;-97.114;2023-10-08T01:33:33;15.80;65.40
19622;DHT22;9958;33.196;-97.114;2023-10-08T01:36:05;15.80;65.20
19622;DHT22;9958;33.196;-97.114;2023-10-08T01:38:40;15.80;65.30
19622;DHT22;9958;33.196;-97.114;2023-10-08T01:41:09;15.70;65.70
19622;DHT22;9958;33.196;-97.114;2023-10-08T01:43:45;15.60;66.30
19622;DHT22;9958;33.196;-97.114;2023-10-08T01:46:13;15.60;66.70
19622;DHT22;9958;33.196;-97.114;2023-10-08T01:48:42;15.60;67.30
19622;DHT22;9958;33.196;-97.114;2023-10-08T01:51:11;15.50;67.50
19622;DHT22;9958;33.196;-97.114;2023-10-08T01:53:53;15.50;68.20
19622;DHT22;9958;33.196;-97.114;2023-10-08T01:56:24;15.50;68.00
19622;DHT22;9958;33.196;-97.114;2023-10-08T01:58:52;15.40;68.20
19622;DHT22;9958;33.196;-97.114;2023-10-08T02:01:22;15.40;68.10
19622;DHT22;9958;33.196;-97.114;2023-10-08T02:03:50;15.40;67.70
19622;DHT22;9958;33.196;-97.114;2023-10-08T02:06:18;15.30;67.70
19622;DHT22;9958;33.196;-97.114;2023-10-08T02:08:47;15.30;67.90
19622;DHT22;9958;33.196;-97.114;2023-10-08T02:11:17;15.20;68.10
19622;DHT22;9958;33.196;-97.114;2023-10-08T02:13:46;15.20;68.20
19622;DHT22;9958;33.196;-97.114;2023-10-08T02:16:19;15.20;69.10
19622;DHT22;9958;33.196;-97.114;2023-10-08T02:18:48;15.20;69.60
19622;DHT22;9958;33.196;-97.114;2023-10-08T02:21:18;15.10;70.20
19622;DHT22;9958;33.196;-97.114;2023-10-08T02:23:46;15.10;70.70
19622;DHT22;9958;33.196;-97.114;2023-10-08T02:26:16;15.10;69.80
19622;DHT22;9958;33.196;-97.114;2023-10-08T02:28:45;15.00;69.60
19622;DHT22;9958;33.196;-97.114;2023-10-08T02:31:15;15.00;70.20
19622;DHT22;9958;33.196;-97.114;2023-10-08T02:33:44;15.00;70.50
19622;DHT22;9958;33.196;-97.114;2023-10-08T02:36:13;14.90;70.60
19622;DHT22;9958;33.196;-97.114;2023-10-08T02:38:42;14.90;70.60
19622;DHT22;9958;33.196;-97.114;2023-10-08T02:41:15;14.90;70.50
19622;DHT22;9958;33.196;-97.114;2023-10-08T02:43:45;14.80;70.60
19622;DHT22;9958;33.196;-97.114;2023-10-08T02:46:15;14.80;70.70
19622;DHT22;9958;33.196;-97.114;2023-10-08T02:48:44;14.70;70.90
19622;DHT22;9958;33.196;-97.114;2023-10-08T02:51:13;14.70;71.70
19622;DHT22;9958;33.196;-97.114;2023-10-08T02:53:42;14.70;71.00
19622;DHT22;9958;33.196;-97.114;2023-10-08T02:56:10;14.60;72.10
19622;DHT22;9958;33.196;-97.114;2023-10-08T02:58:44;14.60;71.50
19622;DHT22;9958;33.196;-97.114;2023-10-08T03:01:14;14.60;71.60
19622;DHT22;9958;33.196;-97.114;2023-10-08T03:03:42;14.60;71.90
19622;DHT22;9958;33.196;-97.114;2023-10-08T03:06:13;14.50;72.10
19622;DHT22;9958;33.196;-97.114;2023-10-08T03:08:41;14.50;72.60
19622;DHT22;9958;33.196;-97.114;2023-10-08T03:11:10;14.50;73.20
19622;DHT22;9958;33.196;-97.114;2023-10-08T03:13:46;14.40;72.90
19622;DHT22;9958;33.196;-97.114;2023-10-08T03:16:18;14.40;72.80
19622;DHT22;9958;33.196;-97.114;2023-10-08T03:18:54;14.40;72.80
19622;DHT22;9958;33.196;-97.114;2023-10-08T03:21:23;14.40;72.70
19622;DHT22;9958;33.196;-97.114;2023-10-08T03:24:15;14.30;72.80
19622;DHT22;9958;33.196;-97.114;2023-10-08T03:26:56;14.30;73.10
19622;DHT22;9958;33.196;-97.114;2023-10-08T03:29:34;14.30;73.10
19622;DHT22;9958;33.196;-97.114;2023-10-08T03:32:07;14.30;73.20
19622;DHT22;9958;33.196;-97.114;2023-10-08T03:34:39;14.20;73.00
19622;DHT22;9958;33.196;-97.114;2023-10-08T03:37:10;14.20;72.50
19622;DHT22;9958;33.196;-97.114;2023-10-08T03:39:47;14.20;72.80
19622;DHT22;9958;33.196;-97.114;2023-10-08T03:42:33;14.10;74.10
19622;DHT22;9958;33.196;-97.114;2023-10-08T03:45:09;14.10;74.20
19622;DHT22;9958;33.196;-97.114;2023-10-08T03:47:43;14.10;74.60
19622;DHT22;9958;33.196;-97.114;2023-10-08T03:50:12;14.00;74.70
19622;DHT22;9958;33.196;-97.114;2023-10-08T03:52:44;14.00;75.40
19622;DHT22;9958;33.196;-97.114;2023-10-08T03:55:13;14.00;75.60
19622;DHT22;9958;33.196;-97.114;2023-10-08T03:57:53;13.90;75.60
19622;DHT22;9958;33.196;-97.114;2023-10-08T04:00:26;13.90;75.20
19622;DHT22;9958;33.196;-97.114;2023-10-08T04:02:58;13.90;75.00
19622;DHT22;9958;33.196;-97.114;2023-10-08T04:05:34;13.80;75.20
19622;DHT22;9958;33.196;-97.114;2023-10-08T04:08:10;13.80;75.40
19622;DHT22;9958;33.196;-97.114;2023-10-08T04:10:51;13.80;75.30
19622;DHT22;9958;33.196;-97.114;2023-10-08T04:13:35;13.70;75.40
19622;DHT22;9958;33.196;-97.114;2023-10-08T04:16:12;13.80;75.60
19622;DHT22;9958;33.196;-97.114;2023-10-08T04:18:46;13.70;76.10
19622;DHT22;9958;33.196;-97.114;2023-10-08T04:21:18;13.70;75.50
19622;DHT22;9958;33.196;-97.114;2023-10-08T04:23:47;13.70;75.60
19622;DHT22;9958;33.196;-97.114;2023-10-08T04:26:19;13.70;76.00
19622;DHT22;9958;33.196;-97.114;2023-10-08T04:28:51;13.70;75.90
19622;DHT22;9958;33.196;-97.114;2023-10-08T04:31:25;13.60;76.10
19622;DHT22;9958;33.196;-97.114;2023-10-08T04:34:03;13.60;76.30
19622;DHT22;9958;33.196;-97.114;2023-10-08T04:36:36;13.60;76.50
19622;DHT22;9958;33.196;-97.114;2023-10-08T04:39:06;13.60;76.30
19622;DHT22;9958;33.196;-97.114;2023-10-08T04:41:40;13.50;76.20
19622;DHT22;9958;33.196;-97.114;2023-10-08T04:44:09;13.50;76.30
19622;DHT22;9958;33.196;-97.114;2023-10-08T04:46:43;13.50;76.70
19622;DHT22;9958;33.196;-97.114;2023-10-08T04:49:19;13.50;76.80
19622;DHT22;9958;33.196;-97.114;2023-10-08T04:51:55;13.40;76.40
19622;DHT22;9958;33.196;-97.114;2023-10-08T04:54:27;13.40;76.70
19622;DHT22;9958;33.196;-97.114;2023-10-08T04:56:58;13.30;76.80
19622;DHT22;9958;33.196;-97.114;2023-10-08T04:59:27;13.30;77.60
19622;DHT22;9958;33.196;-97.114;2023-10-08T05:02:05;13.30;77.40
19622;DHT22;9958;33.196;-97.114;2023-10-08T05:05:00;13.30;77.40
19622;DHT22;9958;33.196;-97.114;2023-10-08T05:07:47;13.30;77.90
19622;DHT22;9958;33.196;-97.114;2023-10-08T05:10:37;13.20;77.80
19622;DHT22;9958;33.196;-97.114;2023-10-08T05:13:23;13.20;77.90
19622;DHT22;9958;33.196;-97.114;2023-10-08T05:15:59;13.20;78.00
19622;DHT22;9958;33.196;-97.114;2023-10-08T05:18:47;13.10;78.80
19622;DHT22;9958;33.196;-97.114;2023-10-08T05:21:32;13.10;78.80
19622;DHT22;9958;33.196;-97.114;2023-10-08T05:24:18;13.10;78.00
19622;DHT22;9958;33.196;-97.114;2023-10-08T05:27:04;13.10;77.70
19622;DHT22;9958;33.196;-97.114;2023-10-08T05:29:46;13.00;77.60
19622;DHT22;9958;33.196;-97.114;2023-10-08T05:32:39;13.00;77.40
19622;DHT22;9958;33.196;-97.114;2023-10-08T05:35:34;13.00;77.50
19622;DHT22;9958;33.196;-97.114;2023-10-08T05:38:18;13.00;78.30
19622;DHT22;9958;33.196;-97.114;2023-10-08T05:41:04;12.90;79.30
19622;DHT22;9958;33.196;-97.114;2023-10-08T05:43:43;12.90;79.60
19622;DHT22;9958;33.196;-97.114;2023-10-08T05:46:22;12.90;79.90
19622;DHT22;9958;33.196;-97.114;2023-10-08T05:49:08;12.90;79.40
19622;DHT22;9958;33.196;-97.114;2023-10-08T05:51:51;12.80;79.50
19622;DHT22;9958;33.196;-97.114;2023-10-08T05:54:40;12.80;80.30
19622;DHT22;9958;33.196;-97.114;2023-10-08T05:57:24;12.80;80.90
19622;DHT22;9958;33.196;-97.114;2023-10-08T06:00:06;12.80;80.60
19622;DHT22;9958;33.196;-97.114;2023-10-08T06:02:51;12.80;80.70
19622;DHT22;9958;33.196;-97.114;2023-10-08T06:05:36;12.70;79.70
19622;DHT22;9958;33.196;-97.114;2023-10-08T06:08:32;12.70;79.40
19622;DHT22;9958;33.196;-97.114;2023-10-08T06:11:16;12.70;79.10
19622;DHT22;9958;33.196;-97.114;2023-10-08T06:14:08;12.70;79.10
19622;DHT22;9958;33.196;-97.114;2023-10-08T06:16:43;12.70;79.50
19622;DHT22;9958;33.196;-97.114;2023-10-08T06:19:13;12.60;80.10
19622;DHT22;9958;33.196;-97.114;2023-10-08T06:21:42;12.60;80.00
19622;DHT22;9958;33.196;-97.114;2023-10-08T06:24:13;12.60;80.80
19622;DHT22;9958;33.196;-97.114;2023-10-08T06:26:43;12.60;80.20
19622;DHT22;9958;33.196;-97.114;2023-10-08T06:29:15;12.60;80.20
19622;DHT22;9958;33.196;-97.114;2023-10-08T06:31:53;12.60;81.00
19622;DHT22;9958;33.196;-97.114;2023-10-08T06:34:23;12.60;81.80
19622;DHT22;9958;33.196;-97.114;2023-10-08T06:36:55;12.60;81.90
19622;DHT22;9958;33.196;-97.114;2023-10-08T06:39:25;12.50;82.30
19622;DHT22;9958;33.196;-97.114;2023-10-08T06:42:00;12.50;82.80
19622;DHT22;9958;33.196;-97.114;2023-10-08T06:44:29;12.50;83.70
19622;DHT22;9958;33.196;-97.114;2023-10-08T06:46:57;12.50;84.90
19622;DHT22;9958;33.196;-97.114;2023-10-08T06:49:25;12.50;86.40
19622;DHT22;9958;33.196;-97.114;2023-10-08T06:51:56;12.50;88.00
19622;DHT22;9958;33.196;-97.114;2023-10-08T06:54:26;12.50;88.50
19622;DHT22;9958;33.196;-97.114;2023-10-08T06:56:57;12.50;89.90
19622;DHT22;9958;33.196;-97.114;2023-10-08T06:59:26;12.50;90.50
19622;DHT22;9958;33.196;-97.114;2023-10-08T07:01:57;12.40;90.30
19622;DHT22;9958;33.196;-97.114;2023-10-08T07:04:26;12.40;90.10
19622;DHT22;9958;33.196;-97.114;2023-10-08T07:06:55;12.40;89.80
19622;DHT22;9958;33.196;-97.114;2023-10-08T07:09:27;12.40;89.50
19622;DHT22;9958;33.196;-97.114;2023-10-08T07:11:57;12.30;90.50
19622;DHT22;9958;33.196;-97.114;2023-10-08T07:14:31;12.30;90.90
19622;DHT22;9958;33.196;-97.114;2023-10-08T07:17:00;12.30;90.70
19622;DHT22;9958;33.196;-97.114;2023-10-08T07:19:34;12.30;90.50
19622;DHT22;9958;33.196;-97.114;2023-10-08T07:22:07;12.30;90.20
19622;DHT22;9958;33.196;-97.114;2023-10-08T07:24:46;12.30;90.20
19622;DHT22;9958;33.196;-97.114;2023-10-08T07:27:17;12.20;90.00
19622;DHT22;9958;33.196;-97.114;2023-10-08T07:29:48;12.20;90.10
19622;DHT22;9958;33.196;-97.114;2023-10-08T07:32:16;12.20;90.50
19622;DHT22;9958;33.196;-97.114;2023-10-08T07:34:45;12.20;91.00
19622;DHT22;9958;33.196;-97.114;2023-10-08T07:37:13;12.10;91.40
19622;DHT22;9958;33.196;-97.114;2023-10-08T07:39:42;12.10;91.60
19622;DHT22;9958;33.196;-97.114;2023-10-08T07:42:14;12.10;91.60
19622;DHT22;9958;33.196;-97.114;2023-10-08T07:44:43;12.10;91.60
19622;DHT22;9958;33.196;-97.114;2023-10-08T07:47:13;12.00;91.70
19622;DHT22;9958;33.196;-97.114;2023-10-08T07:49:42;12.00;92.20
19622;DHT22;9958;33.196;-97.114;2023-10-08T07:52:11;12.00;92.70
19622;DHT22;9958;33.196;-97.114;2023-10-08T07:54:42;12.00;93.20
19622;DHT22;9958;33.196;-97.114;2023-10-08T07:57:10;11.90;93.00
19622;DHT22;9958;33.196;-97.114;2023-10-08T07:59:42;11.90;92.90
19622;DHT22;9958;33.196;-97.114;2023-10-08T08:02:14;11.90;93.10
19622;DHT22;9958;33.196;-97.114;2023-10-08T08:04:44;11.90;93.30
19622;DHT22;9958;33.196;-97.114;2023-10-08T08:07:17;11.80;93.50
19622;DHT22;9958;33.196;-97.114;2023-10-08T08:09:46;11.80;94.00
19622;DHT22;9958;33.196;-97.114;2023-10-08T08:12:17;11.80;94.00
19622;DHT22;9958;33.196;-97.114;2023-10-08T08:14:47;11.80;94.40
19622;DHT22;9958;33.196;-97.114;2023-10-08T08:17:16;11.80;94.70
19622;DHT22;9958;33.196;-97.114;2023-10-08T08:19:46;11.80;95.00
19622;DHT22;9958;33.196;-97.114;2023-10-08T08:22:17;11.80;95.30
19622;DHT22;9958;33.196;-97.114;2023-10-08T08:24:48;11.80;95.70
19622;DHT22;9958;33.196;-97.114;2023-10-08T08:27:19;11.80;96.10
19622;DHT22;9958;33.196;-97.114;2023-10-08T08:30:01;11.80;96.40
19622;DHT22;9958;33.196;-97.114;2023-10-08T08:32:42;11.80;96.40
19622;DHT22;9958;33.196;-97.114;2023-10-08T08:35:11;11.80;96.00
19622;DHT22;9958;33.196;-97.114;2023-10-08T08:37:43;11.80;96.00
19622;DHT22;9958;33.196;-97.114;2023-10-08T08:40:13;11.80;96.30
19622;DHT22;9958;33.196;-97.114;2023-10-08T08:42:44;11.70;96.60
19622;DHT22;9958;33.196;-97.114;2023-10-08T08:45:23;11.80;96.70
19622;DHT22;9958;33.196;-97.114;2023-10-08T08:47:52;11.70;96.10
19622;DHT22;9958;33.196;-97.114;2023-10-08T08:50:22;11.70;95.70
19622;DHT22;9958;33.196;-97.114;2023-10-08T08:52:53;11.70;95.40
19622;DHT22;9958;33.196;-97.114;2023-10-08T08:55:22;11.70;95.50
19622;DHT22;9958;33.196;-97.114;2023-10-08T08:57:51;11.70;95.90
19622;DHT22;9958;33.196;-97.114;2023-10-08T09:00:22;11.70;96.00
19622;DHT22;9958;33.196;-97.114;2023-10-08T09:02:54;11.60;96.10
19622;DHT22;9958;33.196;-97.114;2023-10-08T09:05:23;11.60;96.30
19622;DHT22;9958;33.196;-97.114;2023-10-08T09:07:56;11.60;96.40
19622;DHT22;9958;33.196;-97.114;2023-10-08T09:10:26;11.60;96.50
19622;DHT22;9958;33.196;-97.114;2023-10-08T09:12:55;11.60;96.70
19622;DHT22;9958;33.196;-97.114;2023-10-08T09:15:27;11.60;97.30
19622;DHT22;9958;33.196;-97.114;2023-10-08T09:17:56;11.50;97.90
19622;DHT22;9958;33.196;-97.114;2023-10-08T09:20:27;11.50;98.40
19622;DHT22;9958;33.196;-97.114;2023-10-08T09:23:16;11.50;98.70
19622;DHT22;9958;33.196;-97.114;2023-10-08T09:25:45;11.50;99.30
19622;DHT22;9958;33.196;-97.114;2023-10-08T09:28:16;11.50;99.90
19622;DHT22;9958;33.196;-97.114;2023-10-08T09:30:46;11.50;99.90
19622;DHT22;9958;33.196;-97.114;2023-10-08T09:33:15;11.50;99.90
19622;DHT22;9958;33.196;-97.114;2023-10-08T09:35:44;11.50;99.90
19622;DHT22;9958;33.196;-97.114;2023-10-08T09:38:14;11.50;99.90
19622;DHT22;9958;33.196;-97.114;2023-10-08T09:40:49;11.50;99.90
19622;DHT22;9958;33.196;-97.114;2023-10-08T09:43:19;11.40;99.90
19622;DHT22;9958;33.196;-97.114;2023-10-08T09:45:53;11.40;99.90
19622;DHT22;9958;33.196;-97.114;2023-10-08T09:48:26;11.40;99.90
19622;DHT22;9958;33.196;-97.114;2023-10-08T09:50:58;11.40;99.90
19622;DHT22;9958;33.196;-97.114;2023-10-08T09:53:31;11.40;99.90
19622;DHT22;9958;33.196;-97.114;2023-10-08T09:56:13;11.30;99.90
19622;DHT22;9958;33.196;-97.114;2023-10-08T09:58:45;11.30;99.90
19622;DHT22;9958;33.196;-97.114;2023-10-08T10:01:18;11.30;99.90
19622;DHT22;9958;33.196;-97.114;2023-10-08T10:03:46;11.30;99.90
19622;DHT22;9958;33.196;-97.114;2023-10-08T10:06:18;11.20;99.90
19622;DHT22;9958;33.196;-97.114;2023-10-08T10:08:48;11.20;99.90
19622;DHT22;9958;33.196;-97.114;2023-10-08T10:11:16;11.20;99.90
19622;DHT22;9958;33.196;-97.114;2023-10-08T10:13:51;11.20;99.90
19622;DHT22;9958;33.196;-97.114;2023-10-08T10:16:28;11.10;99.90
19622;DHT22;9958;33.196;-97.114;2023-10-08T10:18:56;11.20;99.90
19622;DHT22;9958;33.196;-97.114;2023-10-08T10:21:27;11.10;99.90
19622;DHT22;9958;33.196;-97.114;2023-10-08T10:23:57;11.10;99.90
19622;DHT22;9958;33.196;-97.114;2023-10-08T10:26:27;11.10;99.90
19622;DHT22;9958;33.196;-97.114;2023-10-08T10:29:17;11.10;99.90
19622;DHT22;9958;33.196;-97.114;2023-10-08T10:31:48;11.00;99.90
19622;DHT22;9958;33.196;-97.114;2023-10-08T10:34:21;11.00;99.90
19622;DHT22;9958;33.196;-97.114;2023-10-08T10:36:51;11.00;99.90
19622;DHT22;9958;33.196;-97.114;2023-10-08T10:39:35;11.00;99.90
19622;DHT22;9958;33.196;-97.114;2023-10-08T10:42:06;10.90;99.90
19622;DHT22;9958;33.196;-97.114;2023-10-08T10:44:47;10.90;99.90
19622;DHT22;9958;33.196;-97.114;2023-10-08T10:47:19;10.90;99.90
19622;DHT22;9958;33.196;-97.114;2023-10-08T10:50:09;10.90;99.90
19622;DHT22;9958;33.196;-97.114;2023-10-08T10:52:53;10.90;99.90
19622;DHT22;9958;33.196;-97.114;2023-10-08T10:55:22;10.90;99.90
19622;DHT22;9958;33.196;-97.114;2023-10-08T10:57:58;10.80;99.90
19622;DHT22;9958;33.196;-97.114;2023-10-08T11:00:39;10.80;99.90
19622;DHT22;9958;33.196;-97.114;2023-10-08T11:03:15;10.80;99.90
19622;DHT22;9958;33.196;-97.114;2023-10-08T11:05:53;10.80;99.90
19622;DHT22;9958;33.196;-97.114;2023-10-08T11:08:26;10.80;99.90
19622;DHT22;9958;33.196;-97.114;2023-10-08T11:11:01;10.80;99.90
19622;DHT22;9958;33.196;-97.114;2023-10-08T11:13:33;10.80;99.90
19622;DHT22;9958;33.196;-97.114;2023-10-08T11:16:06;10.70;99.90
19622;DHT22;9958;33.196;-97.114;2023-10-08T11:18:44;10.70;99.90
19622;DHT22;9958;33.196;-97.114;2023-10-08T11:21:17;10.70;99.90
19622;DHT22;9958;33.196;-97.114;2023-10-08T11:23:51;10.70;99.90
19622;DHT22;9958;33.196;-97.114;2023-10-08T11:26:26;10.70;99.90
19622;DHT22;9958;33.196;-97.114;2023-10-08T11:29:02;10.70;99.90
19622;DHT22;9958;33.196;-97.114;2023-10-08T11:31:31;10.60;99.90
19622;DHT22;9958;33.196;-97.114;2023-10-08T11:34:04;10.70;99.90
19622;DHT22;9958;33.196;-97.114;2023-10-08T11:36:37;10.60;99.90
19622;DHT22;9958;33.196;-97.114;2023-10-08T11:39:15;10.60;99.90
19622;DHT22;9958;33.196;-97.114;2023-10-08T11:41:58;10.60;99.90
19622;DHT22;9958;33.196;-97.114;2023-10-08T11:44:30;10.60;99.90
19622;DHT22;9958;33.196;-97.114;2023-10-08T11:47:02;10.60;99.90
19622;DHT22;9958;33.196;-97.114;2023-10-08T11:49:40;10.60;99.90
19622;DHT22;9958;33.196;-97.114;2023-10-08T11:52:13;10.60;99.90
19622;DHT22;9958;33.196;-97.114;2023-10-08T11:54:43;10.60;99.90
19622;DHT22;9958;33.196;-97.114;2023-10-08T11:57:14;10.60;99.90
19622;DHT22;9958;33.196;-97.114;2023-10-08T11:59:48;10.60;99.90
19622;DHT22;9958;33.196;-97.114;2023-10-08T12:02:19;10.60;99.90
19622;DHT22;9958;33.196;-97.114;2023-10-08T12:04:49;10.60;99.90
19622;DHT22;9958;33.196;-97.114;2023-10-08T12:07:17;10.60;99.90
19622;DHT22;9958;33.196;-97.114;2023-10-08T12:09:46;10.50;99.90
19622;DHT22;9958;33.196;-97.114;2023-10-08T12:12:14;10.60;99.90
19622;DHT22;9958;33.196;-97.114;2023-10-08T12:14:47;10.50;99.90
19622;DHT22;9958;33.196;-97.114;2023-10-08T12:17:16;10.60;99.90
19622;DHT22;9958;33.196;-97.114;2023-10-08T12:19:44;10.50;99.90
19622;DHT22;9958;33.196;-97.114;2023-10-08T12:22:15;10.60;99.90
19622;DHT22;9958;33.196;-97.114;2023-10-08T12:24:46;10.60;99.90
19622;DHT22;9958;33.196;-97.114;2023-10-08T12:27:14;10.60;99.90
19622;DHT22;9958;33.196;-97.114;2023-10-08T12:29:43;10.50;99.90
19622;DHT22;9958;33.196;-97.114;2023-10-08T12:32:13;10.50;99.90
19622;DHT22;9958;33.196;-97.114;2023-10-08T12:34:43;10.50;99.90
19622;DHT22;9958;33.196;-97.114;2023-10-08T12:37:15;10.50;99.90
19622;DHT22;9958;33.196;-97.114;2023-10-08T12:39:45;10.50;99.90
19622;DHT22;9958;33.196;-97.114;2023-10-08T12:42:26;10.50;99.90
19622;DHT22;9958;33.196;-97.114;2023-10-08T12:44:54;10.50;99.90
19622;DHT22;9958;33.196;-97.114;2023-10-08T12:47:23;10.50;99.90
19622;DHT22;9958;33.196;-97.114;2023-10-08T12:49:55;10.50;99.90
19622;DHT22;9958;33.196;-97.114;2023-10-08T12:52:25;10.50;99.90
19622;DHT22;9958;33.196;-97.114;2023-10-08T12:54:54;10.50;99.90
19622;DHT22;9958;33.196;-97.114;2023-10-08T12:57:25;10.50;99.90
19622;DHT22;9958;33.196;-97.114;2023-10-08T12:59:59;10.60;99.90
19622;DHT22;9958;33.196;-97.114;2023-10-08T13:02:29;10.60;99.90
19622;DHT22;9958;33.196;-97.114;2023-10-08T13:04:58;10.60;99.90
19622;DHT22;9958;33.196;-97.114;2023-10-08T13:07:28;10.60;99.90
19622;DHT22;9958;33.196;-97.114;2023-10-08T13:10:05;10.60;99.90
19622;DHT22;9958;33.196;-97.114;2023-10-08T13:12:34;10.70;99.90
19622;DHT22;9958;33.196;-97.114;2023-10-08T13:15:04;10.80;99.90
19622;DHT22;9958;33.196;-97.114;2023-10-08T13:17:33;10.90;99.90
19622;DHT22;9958;33.196;-97.114;2023-10-08T13:20:01;10.90;99.90
19622;DHT22;9958;33.196;-97.114;2023-10-08T13:22:32;11.10;99.90
19622;DHT22;9958;33.196;-97.114;2023-10-08T13:25:00;11.20;99.90
19622;DHT22;9958;33.196;-97.114;2023-10-08T13:27:30;11.30;99.90
19622;DHT22;9958;33.196;-97.114;2023-10-08T13:29:59;11.40;99.90
19622;DHT22;9958;33.196;-97.114;2023-10-08T13:32:31;11.60;99.90
19622;DHT22;9958;33.196;-97.114;2023-10-08T13:35:02;11.70;99.90
19622;DHT22;9958;33.196;-97.114;2023-10-08T13:37:34;11.80;99.90
19622;DHT22;9958;33.196;-97.114;2023-10-08T13:40:03;12.00;99.90
19622;DHT22;9958;33.196;-97.114;2023-10-08T13:42:32;12.20;99.90
19622;DHT22;9958;33.196;-97.114;2023-10-08T13:45:00;12.40;99.90
19622;DHT22;9958;33.196;-97.114;2023-10-08T13:47:34;12.50;99.90
19622;DHT22;9958;33.196;-97.114;2023-10-08T13:50:06;12.70;99.90
19622;DHT22;9958;33.196;-97.114;2023-10-08T13:52:38;12.90;99.90
19622;DHT22;9958;33.196;-97.114;2023-10-08T13:55:08;13.20;99.90
19622;DHT22;9958;33.196;-97.114;2023-10-08T13:57:40;13.40;99.90
19622;DHT22;9958;33.196;-97.114;2023-10-08T14:00:11;13.60;99.90
19622;DHT22;9958;33.196;-97.114;2023-10-08T14:02:42;13.70;99.90
19622;DHT22;9958;33.196;-97.114;2023-10-08T14:05:11;13.90;99.90
19622;DHT22;9958;33.196;-97.114;2023-10-08T14:07:43;14.10;99.90
19622;DHT22;9958;33.196;-97.114;2023-10-08T14:10:12;14.30;99.90
19622;DHT22;9958;33.196;-97.114;2023-10-08T14:12:45;14.60;99.90
19622;DHT22;9958;33.196;-97.114;2023-10-08T14:15:16;14.80;99.90
19622;DHT22;9958;33.196;-97.114;2023-10-08T14:17:45;15.00;99.90
19622;DHT22;9958;33.196;-97.114;2023-10-08T14:20:15;15.20;99.90
19622;DHT22;9958;33.196;-97.114;2023-10-08T14:22:50;15.30;99.90
19622;DHT22;9958;33.196;-97.114;2023-10-08T14:25:26;15.50;99.90
19622;DHT22;9958;33.196;-97.114;2023-10-08T14:27:54;15.70;99.90
19622;DHT22;9958;33.196;-97.114;2023-10-08T14:30:31;15.90;99.90
19622;DHT22;9958;33.196;-97.114;2023-10-08T14:33:07;16.10;99.90
19622;DHT22;9958;33.196;-97.114;2023-10-08T14:35:39;16.20;99.90
19622;DHT22;9958;33.196;-97.114;2023-10-08T14:38:26;16.40;99.90
19622;DHT22;9958;33.196;-97.114;2023-10-08T14:41:11;16.60;99.90
19622;DHT22;9958;33.196;-97.114;2023-10-08T14:43:56;16.80;99.90
19622;DHT22;9958;33.196;-97.114;2023-10-08T14:46:25;16.90;99.90
19622;DHT22;9958;33.196;-97.114;2023-10-08T14:48:58;17.00;99.80
19622;DHT22;9958;33.196;-97.114;2023-10-08T14:51:26;17.20;99.40
19622;DHT22;9958;33.196;-97.114;2023-10-08T14:53:58;17.30;98.40
19622;DHT22;9958;33.196;-97.114;2023-10-08T14:56:27;17.50;97.70
19622;DHT22;9958;33.196;-97.114;2023-10-08T14:58:59;17.60;96.80
19622;DHT22;9958;33.196;-97.114;2023-10-08T15:01:27;17.70;96.70
19622;DHT22;9958;33.196;-97.114;2023-10-08T15:03:59;17.90;96.30
19622;DHT22;9958;33.196;-97.114;2023-10-08T15:06:31;17.90;95.70
19622;DHT22;9958;33.196;-97.114;2023-10-08T15:09:01;18.00;95.60
19622;DHT22;9958;33.196;-97.114;2023-10-08T15:11:30;18.20;94.90
19622;DHT22;9958;33.196;-97.114;2023-10-08T15:13:58;18.30;94.70
19622;DHT22;9958;33.196;-97.114;2023-10-08T15:16:27;18.40;93.70
19622;DHT22;9958;33.196;-97.114;2023-10-08T15:18:57;18.50;93.60
19622;DHT22;9958;33.196;-97.114;2023-10-08T15:21:26;18.60;93.50
19622;DHT22;9958;33.196;-97.114;2023-10-08T15:23:54;18.70;92.80
19622;DHT22;9958;33.196;-97.114;2023-10-08T15:26:24;18.90;92.60
19622;DHT22;9958;33.196;-97.114;2023-10-08T15:28:53;19.00;91.00
19622;DHT22;9958;33.196;-97.114;2023-10-08T15:31:21;19.10;90.70
19622;DHT22;9958;33.196;-97.114;2023-10-08T15:33:50;19.30;90.90
19622;DHT22;9958;33.196;-97.114;2023-10-08T15:36:20;19.30;89.60
19622;DHT22;9958;33.196;-97.114;2023-10-08T15:38:48;19.50;89.20
19622;DHT22;9958;33.196;-97.114;2023-10-08T15:41:16;19.60;87.60
19622;DHT22;9958;33.196;-97.114;2023-10-08T15:43:50;19.70;87.20
19622;DHT22;9958;33.196;-97.114;2023-10-08T15:46:20;19.80;86.80
19622;DHT22;9958;33.196;-97.114;2023-10-08T15:48:48;19.90;84.70
19622;DHT22;9958;33.196;-97.114;2023-10-08T15:51:17;20.00;83.30